createdAt,value
2022-12-17T00:00:02.801Z,0
2022-12-17T00:15:02.214Z,0
2022-12-17T00:30:02.647Z,0
2022-12-17T00:45:03.224Z,0
2022-12-17T01:00:02.544Z,0
2022-12-17T01:15:03.197Z,0
2022-12-17T01:30:02.424Z,0
2022-12-17T01:45:02.862Z,0
2022-12-17T02:00:02.312Z,0
2022-12-17T02:15:02.732Z,0
2022-12-17T02:30:03.251Z,0
2022-12-17T02:45:02.586Z,0
2022-12-17T03:00:03.255Z,0
2022-12-17T03:15:02.479Z,0
2022-12-17T03:30:02.907Z,0
2022-12-17T03:45:02.344Z,0
2022-12-17T04:00:02.789Z,0
2022-12-17T04:15:03.273Z,0
2022-12-17T04:30:02.663Z,0
2022-12-17T04:45:03.295Z,0
2022-12-17T05:00:02.539Z,0
2022-12-17T05:15:02.984Z,0
2022-12-17T05:30:02.406Z,0
2022-12-17T05:45:02.823Z,0
2022-12-17T06:00:03.331Z,0
2022-12-17T06:15:02.714Z,0
2022-12-17T06:30:03.316Z,0
2022-12-17T06:45:02.593Z,0
2022-12-17T07:00:03.057Z,0
2022-12-17T07:15:02.470Z,0
2022-12-17T07:30:02.922Z,0
2022-12-17T07:45:02.365Z,0
2022-12-17T08:00:02.815Z,1
2022-12-17T08:15:03.347Z,5
2022-12-17T08:30:02.691Z,9
2022-12-17T08:45:03.354Z,14
2022-12-17T09:00:02.567Z,13
2022-12-17T09:15:03.029Z,19
2022-12-17T09:30:02.451Z,26
2022-12-17T09:45:02.895Z,31
2022-12-17T10:00:02.365Z,31
2022-12-17T10:15:02.751Z,32
2022-12-17T10:30:03.368Z,36
2022-12-17T10:45:02.621Z,37
2022-12-17T11:00:03.062Z,39
2022-12-17T11:15:02.479Z,33
2022-12-17T11:30:02.913Z,39
2022-12-17T11:45:02.358Z,35
2022-12-17T12:00:04.534Z,36
2022-12-17T12:15:03.383Z,29
2022-12-17T12:30:02.642Z,24
2022-12-17T12:45:03.087Z,31
2022-12-17T13:00:02.511Z,33
2022-12-17T13:15:02.950Z,27
2022-12-17T13:30:02.400Z,23
2022-12-17T13:45:02.801Z,33
2022-12-17T14:00:03.396Z,20
2022-12-17T14:15:02.699Z,14
2022-12-17T14:30:03.133Z,15
2022-12-17T14:45:02.545Z,7
2022-12-17T15:00:03.111Z,0
2022-12-17T15:15:02.427Z,0
2022-12-17T15:30:02.853Z,0
2022-12-17T15:45:02.439Z,0
2022-12-17T16:00:02.731Z,0
2022-12-17T16:15:03.346Z,0
2022-12-17T16:30:02.625Z,0
2022-12-17T16:45:03.085Z,0
2022-12-17T17:00:02.528Z,0
2022-12-17T17:15:02.945Z,0
2022-12-17T17:30:03.912Z,0
2022-12-17T17:45:02.821Z,0
2022-12-17T18:00:02.465Z,0
2022-12-17T18:15:14.175Z,0
2022-12-17T18:30:03.161Z,0
2022-12-17T18:45:02.591Z,0
2022-12-17T19:00:03.012Z,0
2022-12-17T19:15:02.485Z,0
2022-12-17T19:30:02.885Z,0
2022-12-17T19:45:02.493Z,0
2022-12-17T20:00:02.771Z,0
2022-12-17T20:15:03.200Z,0
2022-12-17T20:30:02.631Z,0
2022-12-17T20:45:03.089Z,0
2022-12-17T21:00:02.504Z,0
2022-12-17T21:15:02.966Z,0
2022-12-17T21:30:05.961Z,0
2022-12-17T21:45:02.813Z,0
2022-12-17T22:00:02.262Z,0
2022-12-17T22:15:02.694Z,0
2022-12-17T22:30:03.120Z,0
2022-12-17T22:45:08.965Z,0
2022-12-17T23:15:03.542Z,0
2022-12-17T23:30:02.878Z,0
2022-12-17T23:45:02.460Z,0
